createdAt,value
2018-08-09T00:00:15.927Z,101088.20
2018-08-09T00:02:45.207Z,101087.19
2018-08-09T00:05:14.336Z,101082.86
2018-08-09T00:07:43.475Z,101086.28
2018-08-09T00:10:12.605Z,101086.91
2018-08-09T00:12:41.760Z,101089.08
2018-08-09T00:15:11.641Z,101091.51
2018-08-09T00:17:41.195Z,101089.14
2018-08-09T00:20:10.311Z,101092.47
2018-08-09T00:22:39.473Z,101086.91
2018-08-09T00:25:09.142Z,101077.41
2018-08-09T00:27:38.274Z,101078.92
2018-08-09T00:30:08.488Z,101079.46
2018-08-09T00:32:37.655Z,101079.73
2018-08-09T00:35:06.836Z,101077.81
2018-08-09T00:37:35.997Z,101076.38
2018-08-09T00:40:05.479Z,101075.47
2018-08-09T00:42:34.584Z,101077.51
2018-08-09T00:45:03.788Z,101075.19
2018-08-09T00:47:33.012Z,101063.74
2018-08-09T00:50:02.191Z,101068.77
2018-08-09T00:52:31.503Z,101064.66
2018-08-09T00:55:00.691Z,101067.33
2018-08-09T00:57:29.926Z,101056.82
2018-08-09T01:02:56.296Z,101054.41
2018-08-09T01:05:25.470Z,101060.44
2018-08-09T01:07:54.575Z,101057.09
2018-08-09T01:10:23.768Z,101059.77
2018-08-09T01:12:52.912Z,101060.63
2018-08-09T01:15:22.511Z,101058.19
2018-08-09T01:17:51.682Z,101053.78
2018-08-09T01:20:20.924Z,101059.41
2018-08-09T01:22:50.067Z,101049.88
2018-08-09T01:25:19.263Z,101048.28
2018-08-09T01:27:48.364Z,101047.70
2018-08-09T01:30:17.701Z,101040.69
2018-08-09T01:32:46.897Z,101045.84
2018-08-09T01:35:16.112Z,101042.91
2018-08-09T01:37:45.246Z,101051.47
2018-08-09T01:40:14.404Z,101039.31
2018-08-09T01:43:00.628Z,101034.60
2018-08-09T01:45:29.861Z,101025.92
2018-08-09T01:47:59.043Z,101023.66
2018-08-09T01:50:28.172Z,101033.80
2018-08-09T01:52:57.332Z,101029.14
2018-08-09T01:55:26.543Z,101023.92
2018-08-09T01:57:55.735Z,101024.55
2018-08-09T02:00:25.819Z,101007.23
2018-08-09T02:02:54.951Z,101009.53
2018-08-09T02:05:24.141Z,101005.13
2018-08-09T02:07:53.417Z,101002.41
2018-08-09T02:10:22.719Z,101003.06
2018-08-09T02:12:51.900Z,101005.07
2018-08-09T02:15:21.852Z,101005.92
2018-08-09T02:17:51.040Z,101006.72
2018-08-09T02:20:20.206Z,101003.75
2018-08-09T02:22:49.389Z,100991.77
2018-08-09T02:25:18.531Z,100985.43
2018-08-09T02:27:47.732Z,100991.86
2018-08-09T02:30:17.368Z,100992.80
2018-08-09T02:32:46.656Z,100987.31
2018-08-09T02:35:15.820Z,100988.79
2018-08-09T02:37:44.991Z,100984.36
2018-08-09T02:40:14.191Z,100980.19
2018-08-09T02:42:43.302Z,100978.33
2018-08-09T02:45:13.221Z,100979.45
2018-08-09T02:47:42.392Z,100974.73
2018-08-09T02:50:11.577Z,100965.67
2018-08-09T02:52:40.784Z,100962.84
2018-08-09T02:55:09.927Z,100960.34
2018-08-09T02:57:39.100Z,100966.11
2018-08-09T03:00:08.482Z,100961.05
2018-08-09T03:02:37.675Z,100958.95
2018-08-09T03:07:44.848Z,100952.37
2018-08-09T03:10:51.164Z,100950.00
2018-08-09T03:13:20.399Z,100942.22
2018-08-09T03:15:49.515Z,100941.05
2018-08-09T03:18:18.783Z,100950.86
2018-08-09T03:20:47.955Z,100953.27
2018-08-09T03:23:17.148Z,100958.52
2018-08-09T03:25:46.431Z,100962.83
2018-08-09T03:28:15.680Z,100959.61
2018-08-09T03:30:44.817Z,100956.42
2018-08-09T03:33:13.966Z,100947.55
2018-08-09T03:38:42.559Z,100949.34
2018-08-09T03:44:26.716Z,100947.23
2018-08-09T03:46:55.887Z,100954.03
2018-08-09T03:49:25.290Z,100952.91
2018-08-09T03:51:54.658Z,100942.22
2018-08-09T03:54:23.944Z,100947.62
2018-08-09T03:56:53.054Z,100945.48
2018-08-09T03:59:22.250Z,100948.91
2018-08-09T04:01:51.453Z,100948.91
2018-08-09T04:04:34.147Z,100944.87
2018-08-09T04:07:03.287Z,100942.27
2018-08-09T04:09:32.437Z,100944.33
2018-08-09T04:12:01.751Z,100946.97
2018-08-09T04:14:52.330Z,100944.44
2018-08-09T04:22:46.790Z,100944.20
2018-08-09T04:25:15.917Z,100943.27
2018-08-09T04:27:45.048Z,100951.58
2018-08-09T04:30:15.171Z,100943.65
2018-08-09T04:32:44.319Z,100953.17
2018-08-09T04:35:13.461Z,100952.32
2018-08-09T04:37:42.823Z,100955.08
2018-08-09T04:40:11.945Z,100947.70
2018-08-09T04:42:41.058Z,100945.05
2018-08-09T04:45:11.792Z,100935.84
2018-08-09T04:47:41.075Z,100938.87
2018-08-09T04:50:10.220Z,100937.23
2018-08-09T04:52:39.427Z,100929.80
2018-08-09T04:55:08.564Z,100924.61
2018-08-09T04:57:37.686Z,100923.17
2018-08-09T05:00:07.420Z,100922.97
2018-08-09T05:02:36.699Z,100928.53
2018-08-09T05:05:05.935Z,100927.00
2018-08-09T05:07:35.179Z,100936.47
2018-08-09T05:10:10.132Z,100929.36
2018-08-09T05:12:41.099Z,100924.44
2018-08-09T05:15:12.419Z,100928.09
2018-08-09T05:17:42.551Z,100918.03
2018-08-09T05:20:11.694Z,100920.48
2018-08-09T05:22:40.834Z,100916.04
2018-08-09T05:25:10.107Z,100914.34
2018-08-09T05:27:39.303Z,100917.75
2018-08-09T05:32:47.125Z,100904.00
2018-08-09T05:35:16.281Z,100895.08
2018-08-09T05:37:45.410Z,100894.86
2018-08-09T05:40:14.649Z,100885.88
2018-08-09T05:42:43.779Z,100866.59
2018-08-09T05:45:13.901Z,100864.41
2018-08-09T05:47:43.132Z,100866.53
2018-08-09T05:50:12.304Z,100871.43
2018-08-09T05:52:41.614Z,100873.22
2018-08-09T05:55:10.835Z,100877.27
2018-08-09T05:57:39.968Z,100875.46
2018-08-09T06:00:09.423Z,100870.04
2018-08-09T06:02:38.824Z,100863.10
2018-08-09T06:05:08.175Z,100872.04
2018-08-09T06:07:37.295Z,100869.38
2018-08-09T06:10:07.817Z,100871.97
2018-08-09T06:12:37.090Z,100875.95
2018-08-09T06:15:06.758Z,100874.34
2018-08-09T06:17:36.003Z,100868.45
2018-08-09T06:20:06.104Z,100859.53
2018-08-09T06:22:35.280Z,100847.45
2018-08-09T06:25:05.100Z,100842.27
2018-08-09T06:27:34.272Z,100825.23
2018-08-09T06:30:03.621Z,100831.42
2018-08-09T06:32:32.744Z,100832.88
2018-08-09T06:35:02.421Z,100836.84
2018-08-09T06:37:31.588Z,100838.05
2018-08-09T06:40:00.723Z,100831.06
2018-08-09T06:42:29.851Z,100837.94
2018-08-09T06:44:59.005Z,100831.16
2018-08-09T06:47:28.171Z,100825.38
2018-08-09T06:49:57.383Z,100816.43
2018-08-09T06:52:26.584Z,100808.84
2018-08-09T06:54:55.855Z,100806.81
2018-08-09T06:57:25.144Z,100799.93
2018-08-09T06:59:54.300Z,100799.20
2018-08-09T07:02:23.515Z,100794.02
2018-08-09T07:04:52.628Z,100796.25
2018-08-09T07:07:21.924Z,100806.48
2018-08-09T07:09:51.116Z,100795.30
2018-08-09T07:12:20.257Z,100796.03
2018-08-09T07:14:49.468Z,100787.30
2018-08-09T07:17:18.676Z,100785.77
2018-08-09T07:19:47.788Z,100799.72
2018-08-09T07:22:16.984Z,100798.38
2018-08-09T07:24:46.160Z,100798.47
2018-08-09T07:27:15.535Z,100802.55
2018-08-09T07:29:44.711Z,100800.44
2018-08-09T07:32:13.836Z,100791.31
2018-08-09T07:34:43.076Z,100791.33
2018-08-09T07:37:12.179Z,100788.72
2018-08-09T07:39:41.462Z,100791.78
2018-08-09T07:42:10.547Z,100792.06
2018-08-09T07:44:39.752Z,100782.90
2018-08-09T07:47:09.145Z,100790.70
2018-08-09T07:49:38.403Z,100781.49
2018-08-09T07:54:49.098Z,100776.57
2018-08-09T07:57:18.288Z,100759.44
2018-08-09T07:59:47.447Z,100753.48
2018-08-09T08:02:16.715Z,100737.25
2018-08-09T08:04:45.843Z,100732.59
2018-08-09T08:07:15.066Z,100733.06
2018-08-09T08:09:44.218Z,100722.27
2018-08-09T08:12:13.456Z,100723.55
2018-08-09T08:14:42.647Z,100722.27
2018-08-09T08:17:11.827Z,100708.28
2018-08-09T08:19:41.047Z,100707.77
2018-08-09T08:22:10.199Z,100716.36
2018-08-09T08:24:39.363Z,100717.69
2018-08-09T08:27:08.548Z,100718.86
2018-08-09T08:29:37.784Z,100710.92
2018-08-09T08:32:06.943Z,100701.00
2018-08-09T08:34:36.126Z,100694.17
2018-08-09T08:37:05.571Z,100700.58
2018-08-09T08:39:34.895Z,100703.77
2018-08-09T08:42:04.027Z,100703.50
2018-08-09T08:44:33.242Z,100701.78
2018-08-09T08:47:02.479Z,100697.87
2018-08-09T08:49:31.752Z,100698.66
2018-08-09T08:52:00.971Z,100698.66
2018-08-09T08:54:30.176Z,100700.93
2018-08-09T08:56:59.647Z,100703.83
2018-08-09T08:59:28.860Z,100705.67
2018-08-09T09:01:58.068Z,100694.48
2018-08-09T09:04:27.343Z,100691.78
2018-08-09T09:06:56.480Z,100677.73
2018-08-09T09:09:25.637Z,100671.08
2018-08-09T09:11:54.835Z,100662.27
2018-08-09T09:14:24.000Z,100652.42
2018-08-09T09:16:53.164Z,100634.22
2018-08-09T09:19:22.388Z,100627.81
2018-08-09T09:21:51.564Z,100629.29
2018-08-09T09:24:20.776Z,100612.56
2018-08-09T09:26:49.916Z,100610.02
2018-08-09T09:29:19.104Z,100608.38
2018-08-09T09:31:48.344Z,100616.59
2018-08-09T09:34:17.507Z,100608.66
2018-08-09T09:36:46.618Z,100618.04
2018-08-09T09:39:15.740Z,100607.31
2018-08-09T09:41:44.876Z,100602.95
2018-08-09T09:44:14.262Z,100598.02
2018-08-09T09:46:43.542Z,100573.77
2018-08-09T09:49:12.671Z,100567.77
2018-08-09T09:51:41.820Z,100562.63
2018-08-09T09:54:11.078Z,100544.15
2018-08-09T09:56:40.195Z,100533.07
2018-08-09T09:59:09.430Z,100514.34
2018-08-09T10:01:38.684Z,100489.91
2018-08-09T10:04:07.828Z,100478.44
2018-08-09T10:06:37.088Z,100465.91
2018-08-09T10:09:10.672Z,100446.17
2018-08-09T10:11:39.993Z,100455.07
2018-08-09T10:14:09.177Z,100443.66
2018-08-09T10:16:38.327Z,100449.52
2018-08-09T10:19:07.522Z,100440.46
2018-08-09T10:21:36.731Z,100436.28
2018-08-09T10:24:06.017Z,100442.92
2018-08-09T10:26:35.276Z,100433.16
2018-08-09T10:29:04.490Z,100424.44
2018-08-09T10:31:33.634Z,100415.73
2018-08-09T10:34:02.759Z,100410.40
2018-08-09T10:36:31.908Z,100397.44
2018-08-09T10:39:01.183Z,100392.36
2018-08-09T10:41:30.393Z,100400.11
2018-08-09T10:43:59.538Z,100391.98
2018-08-09T10:46:28.748Z,100387.89
2018-08-09T10:48:57.985Z,100378.84
2018-08-09T10:51:27.095Z,100372.74
2018-08-09T10:53:56.379Z,100363.63
2018-08-09T10:56:25.582Z,100355.20
2018-08-09T10:58:55.147Z,100338.52
2018-08-09T11:01:24.479Z,100337.27
2018-08-09T11:03:53.947Z,100328.16
2018-08-09T11:06:23.220Z,100333.09
2018-08-09T11:08:52.553Z,100316.03
2018-08-09T11:11:21.799Z,100312.94
2018-08-09T11:13:51.018Z,100313.46
2018-08-09T11:16:20.300Z,100323.86
2018-08-09T11:18:49.635Z,100325.44
2018-08-09T11:21:18.854Z,100320.25
2018-08-09T11:23:48.120Z,100318.30
2018-08-09T11:26:17.300Z,100315.90
2018-08-09T11:28:46.484Z,100302.89
2018-08-09T11:31:15.731Z,100281.42
2018-08-09T11:33:44.977Z,100296.62
2018-08-09T11:36:14.172Z,100289.80
2018-08-09T11:38:43.403Z,100285.86
2018-08-09T11:41:12.701Z,100287.31
2018-08-09T11:43:41.827Z,100303.32
2018-08-09T11:46:11.076Z,100290.12
2018-08-09T11:48:40.300Z,100274.97
2018-08-09T11:51:09.679Z,100274.42
2018-08-09T11:53:38.908Z,100281.98
2018-08-09T11:56:08.085Z,100264.33
2018-08-09T11:58:37.231Z,100263.31
2018-08-09T12:01:06.478Z,100255.59
2018-08-09T12:03:35.627Z,100252.91
2018-08-09T12:06:04.839Z,100233.27
2018-08-09T12:08:33.976Z,100217.96
2018-08-09T12:11:03.194Z,100204.01
2018-08-09T12:13:32.696Z,100204.18
2018-08-09T12:16:01.798Z,100206.88
2018-08-09T12:18:30.919Z,100213.28
2018-08-09T12:21:00.182Z,100203.84
2018-08-09T12:23:29.683Z,100213.19
2018-08-09T12:25:58.980Z,100220.41
2018-08-09T12:28:28.170Z,100219.09
2018-08-09T12:30:57.379Z,100221.09
2018-08-09T12:33:26.683Z,100212.98
2018-08-09T12:35:57.881Z,100208.66
2018-08-09T12:38:27.257Z,100202.67
2018-08-09T12:40:56.361Z,100204.13
2018-08-09T12:43:25.483Z,100209.65
2018-08-09T12:45:54.624Z,100196.63
2018-08-09T12:48:23.768Z,100201.19
2018-08-09T12:50:52.910Z,100229.76
2018-08-09T12:56:04.198Z,100192.53
2018-08-09T12:58:33.339Z,100190.19
2018-08-09T13:01:02.468Z,100195.98
2018-08-09T13:03:31.700Z,100202.75
2018-08-09T13:06:01.069Z,100197.63
2018-08-09T13:08:30.335Z,100188.37
2018-08-09T13:10:59.509Z,100195.58
2018-08-09T13:13:28.615Z,100188.73
2018-08-09T13:15:57.836Z,100185.78
2018-08-09T13:18:26.988Z,100178.02
2018-08-09T13:20:56.199Z,100163.96
2018-08-09T13:23:25.389Z,100186.53
2018-08-09T13:25:54.529Z,100188.70
2018-08-09T13:28:23.631Z,100191.03
2018-08-09T13:30:52.757Z,100214.13
2018-08-09T13:33:21.966Z,100196.05
2018-08-09T13:35:51.132Z,100198.56
2018-08-09T13:38:20.284Z,100202.06
2018-08-09T13:40:49.435Z,100219.63
2018-08-09T13:43:18.724Z,100214.44
2018-08-09T13:45:47.917Z,100220.44
2018-08-09T13:48:17.055Z,100232.02
2018-08-09T13:50:46.226Z,100227.49
2018-08-09T13:53:15.335Z,100245.05
2018-08-09T13:55:44.529Z,100251.77
2018-08-09T13:58:13.821Z,100259.12
2018-08-09T14:00:43.060Z,100262.27
2018-08-09T14:03:12.322Z,100264.92
2018-08-09T14:05:41.569Z,100274.81
2018-08-09T14:08:10.728Z,100262.73
2018-08-09T14:10:39.970Z,100282.25
2018-08-09T14:13:09.115Z,100277.19
2018-08-09T14:15:38.251Z,100311.02
2018-08-09T14:18:07.531Z,100294.98
2018-08-09T14:20:36.751Z,100289.27
2018-08-09T14:23:05.909Z,100287.26
2018-08-09T14:25:35.084Z,100298.13
2018-08-09T14:28:04.247Z,100323.78
2018-08-09T14:30:33.431Z,100365.83
2018-08-09T14:33:02.620Z,100314.50
2018-08-09T14:35:31.736Z,100315.47
2018-08-09T14:38:00.878Z,100330.34
2018-08-09T14:43:09.083Z,100351.55
2018-08-09T14:45:38.198Z,100334.39
2018-08-09T14:48:07.733Z,100322.30
2018-08-09T14:50:37.028Z,100326.62
2018-08-09T14:53:06.619Z,100328.92
2018-08-09T14:55:35.772Z,100337.45
2018-08-09T14:58:05.223Z,100331.33
2018-08-09T15:00:34.370Z,100350.11
2018-08-09T15:03:03.538Z,100336.94
2018-08-09T15:05:32.816Z,100342.76
2018-08-09T15:08:01.967Z,100337.45
2018-08-09T15:10:31.210Z,100342.89
2018-08-09T15:13:00.359Z,100339.77
2018-08-09T15:15:29.614Z,100340.23
2018-08-09T15:20:37.812Z,100348.05
2018-08-09T15:23:06.976Z,100353.38
2018-08-09T15:25:36.144Z,100353.87
2018-08-09T15:28:05.556Z,100354.97
2018-08-09T15:30:34.720Z,100345.28
2018-08-09T15:33:03.891Z,100341.11
2018-08-09T15:35:33.171Z,100339.48
2018-08-09T15:38:02.447Z,100342.70
2018-08-09T15:40:31.650Z,100339.13
2018-08-09T15:43:00.788Z,100331.67
2018-08-09T15:45:29.915Z,100346.05
2018-08-09T15:47:59.192Z,100336.95
2018-08-09T15:50:28.348Z,100327.81
2018-08-09T15:52:57.571Z,100329.72
2018-08-09T15:55:27.597Z,100329.23
2018-08-09T15:57:56.777Z,100346.84
2018-08-09T16:00:25.915Z,100336.11
2018-08-09T16:05:36.651Z,100320.45
2018-08-09T16:08:05.807Z,100338.00
2018-08-09T16:10:36.093Z,100328.84
2018-08-09T16:13:05.289Z,100334.02
2018-08-09T16:15:34.419Z,100322.17
2018-08-09T16:20:45.128Z,100329.36
2018-08-09T16:23:14.300Z,100333.36
2018-08-09T16:25:43.420Z,100323.12
2018-08-09T16:28:12.632Z,100329.97
2018-08-09T16:30:41.764Z,100322.26
2018-08-09T16:33:10.911Z,100319.45
2018-08-09T16:35:40.083Z,100312.75
2018-08-09T16:38:09.148Z,100325.80
2018-08-09T16:40:38.254Z,100325.36
2018-08-09T16:43:07.559Z,100327.80
2018-08-09T16:45:36.707Z,100312.19
2018-08-09T16:48:06.723Z,100317.35
2018-08-09T16:50:35.945Z,100327.45
2018-08-09T16:53:05.280Z,100299.92
2018-08-09T16:55:34.574Z,100315.20
2018-08-09T16:58:03.773Z,100336.80
2018-08-09T17:00:33.074Z,100308.44
2018-08-09T17:03:02.203Z,100310.12
2018-08-09T17:05:31.409Z,100303.16
2018-08-09T17:08:00.670Z,100303.75
2018-08-09T17:10:29.996Z,100299.62
2018-08-09T17:12:59.415Z,100297.12
2018-08-09T17:15:29.516Z,100301.91
2018-08-09T17:17:59.506Z,100313.41
2018-08-09T17:20:30.739Z,100315.23
2018-08-09T17:23:01.037Z,100317.93
2018-08-09T17:25:30.537Z,100319.78
2018-08-09T17:27:59.620Z,100316.24
2018-08-09T17:30:29.392Z,100319.01
2018-08-09T17:32:59.486Z,100333.97
2018-08-09T17:35:28.725Z,100335.55
2018-08-09T17:37:57.923Z,100334.19
2018-08-09T17:40:30.399Z,100342.25
2018-08-09T17:43:00.315Z,100360.06
2018-08-09T17:45:31.422Z,100380.09
2018-08-09T17:48:01.285Z,100391.18
2018-08-09T17:50:30.562Z,100445.23
2018-08-09T17:53:02.224Z,100411.48
2018-08-09T17:55:32.376Z,100419.72
2018-08-09T17:58:01.565Z,100429.87
2018-08-09T18:00:32.184Z,100436.97
2018-08-09T18:03:01.460Z,100447.91
2018-08-09T18:05:30.608Z,100468.67
2018-08-09T18:08:00.276Z,100460.25
2018-08-09T18:10:32.725Z,100459.73
2018-08-09T18:13:02.017Z,100467.08
2018-08-09T18:15:31.988Z,100484.06
2018-08-09T18:18:01.972Z,100486.00
2018-08-09T18:20:32.901Z,100490.96
2018-08-09T18:23:02.256Z,100516.72
2018-08-09T18:25:31.411Z,100509.38
2018-08-09T18:28:01.792Z,100513.71
2018-08-09T18:34:06.804Z,100515.06
2018-08-09T18:36:36.052Z,100520.34
2018-08-09T18:39:08.712Z,100530.60
2018-08-09T18:41:38.007Z,100538.66
2018-08-09T18:44:07.174Z,100540.22
2018-08-09T18:46:36.499Z,100543.60
2018-08-09T18:49:05.656Z,100553.48
2018-08-09T18:51:34.895Z,100563.08
2018-08-09T18:54:04.224Z,100561.98
2018-08-09T18:56:33.348Z,100567.03
2018-08-09T18:59:02.615Z,100578.47
2018-08-09T19:01:31.784Z,100586.17
2018-08-09T19:04:00.951Z,100597.23
2018-08-09T19:06:30.170Z,100589.52
2018-08-09T19:08:59.405Z,100580.34
2018-08-09T19:11:28.568Z,100586.55
2018-08-09T19:13:57.913Z,100599.80
2018-08-09T19:16:27.068Z,100593.64
2018-08-09T19:18:56.297Z,100609.75
2018-08-09T19:21:25.456Z,100619.47
2018-08-09T19:23:54.680Z,100615.98
2018-08-09T19:26:23.998Z,100616.19
2018-08-09T19:28:53.153Z,100620.50
2018-08-09T19:31:24.114Z,100621.44
2018-08-09T19:33:53.529Z,100623.14
2018-08-09T19:36:22.758Z,100638.38
2018-08-09T19:38:52.069Z,100640.89
2018-08-09T19:41:21.198Z,100648.69
2018-08-09T19:43:50.452Z,100640.70
2018-08-09T19:46:19.619Z,100640.69
2018-08-09T19:48:48.830Z,100652.69
2018-08-09T19:51:18.050Z,100658.56
2018-08-09T19:53:47.265Z,100656.72
2018-08-09T19:56:16.496Z,100664.89
2018-08-09T19:58:45.679Z,100670.25
2018-08-09T20:01:14.949Z,100662.58
2018-08-09T20:03:44.149Z,100679.24
2018-08-09T20:06:13.371Z,100663.20
2018-08-09T20:08:42.569Z,100685.88
2018-08-09T20:11:12.297Z,100688.64
2018-08-09T20:13:41.721Z,100685.14
2018-08-09T20:16:10.948Z,100718.78
2018-08-09T20:18:40.855Z,100713.02
2018-08-09T20:21:10.079Z,100698.80
2018-08-09T20:23:39.277Z,100716.34
2018-08-09T20:26:08.443Z,100720.59
2018-08-09T20:28:37.591Z,100757.53
2018-08-09T20:31:07.122Z,100749.91
2018-08-09T20:33:36.333Z,100708.47
2018-08-09T20:36:05.620Z,100755.28
2018-08-09T20:38:34.917Z,100753.45
2018-08-09T20:41:04.212Z,100760.72
2018-08-09T20:43:33.385Z,100784.03
2018-08-09T20:46:02.581Z,100756.91
2018-08-09T20:48:31.730Z,100782.95
2018-08-09T20:51:01.096Z,100781.05
2018-08-09T20:53:30.272Z,100790.47
2018-08-09T20:55:59.425Z,100791.05
2018-08-09T20:58:28.723Z,100820.47
2018-08-09T21:00:57.983Z,100822.83
2018-08-09T21:03:27.268Z,100841.53
2018-08-09T21:05:56.456Z,100838.88
2018-08-09T21:08:25.687Z,100865.59
2018-08-09T21:10:54.965Z,100874.48
2018-08-09T21:13:24.132Z,100873.21
2018-08-09T21:15:53.361Z,100887.63
2018-08-09T21:18:22.768Z,100901.62
2018-08-09T21:20:51.980Z,100890.85
2018-08-09T21:23:21.148Z,100897.44
2018-08-09T21:25:50.470Z,100918.66
2018-08-09T21:28:19.684Z,100916.13
2018-08-09T21:30:48.902Z,100917.34
2018-08-09T21:33:18.083Z,100941.23
2018-08-09T21:35:47.287Z,100936.48
2018-08-09T21:38:16.591Z,100937.85
2018-08-09T21:40:45.952Z,100940.12
2018-08-09T21:43:15.190Z,100937.19
2018-08-09T21:45:44.375Z,100939.82
2018-08-09T21:48:13.588Z,100956.53
2018-08-09T21:50:42.781Z,100963.05
2018-08-09T21:53:11.963Z,100998.11
2018-08-09T21:55:41.077Z,100989.08
2018-08-09T21:58:10.235Z,101000.72
2018-08-09T22:00:52.028Z,100990.65
2018-08-09T22:03:24.451Z,101021.62
2018-08-09T22:05:58.758Z,101029.03
2018-08-09T22:08:33.003Z,101040.70
2018-08-09T22:11:07.817Z,101048.35
2018-08-09T22:13:42.135Z,101050.45
2018-08-09T22:16:16.556Z,101052.77
2018-08-09T22:18:51.034Z,101057.59
2018-08-09T22:21:25.640Z,101058.54
2018-08-09T22:23:54.960Z,101066.97
2018-08-09T22:26:24.159Z,101072.37
2018-08-09T22:28:53.301Z,101083.66
2018-08-09T22:31:22.454Z,101082.25
2018-08-09T22:33:51.592Z,101104.55
2018-08-09T22:36:20.791Z,101105.86
2018-08-09T22:38:50.011Z,101104.23
2018-08-09T22:41:19.156Z,101106.69
2018-08-09T22:43:48.394Z,101132.05
2018-08-09T22:46:17.695Z,101127.92
2018-08-09T22:48:46.980Z,101128.98
2018-08-09T22:51:16.163Z,101141.16
2018-08-09T22:53:45.295Z,101161.41
2018-08-09T22:56:14.443Z,101164.78
2018-08-09T22:58:43.720Z,101160.41
2018-08-09T23:01:12.959Z,101160.21
2018-08-09T23:03:42.195Z,101164.15
2018-08-09T23:06:11.336Z,101168.95
2018-08-09T23:08:40.551Z,101171.82
2018-08-09T23:11:09.732Z,101175.50
2018-08-09T23:13:38.968Z,101180.87
2018-08-09T23:16:08.151Z,101184.81
2018-08-09T23:18:37.379Z,101185.75
2018-08-09T23:21:06.544Z,101198.97
2018-08-09T23:23:35.823Z,101208.33
2018-08-09T23:26:05.039Z,101209.34
2018-08-09T23:28:34.279Z,101216.29
2018-08-09T23:31:03.448Z,101210.58
2018-08-09T23:33:32.664Z,101228.20
2018-08-09T23:36:01.836Z,101232.78
2018-08-09T23:38:31.006Z,101228.77
2018-08-09T23:41:00.176Z,101238.84
2018-08-09T23:43:29.355Z,101238.45
2018-08-09T23:45:58.515Z,101240.83
2018-08-09T23:48:27.692Z,101249.49
2018-08-09T23:50:56.848Z,101256.17
2018-08-09T23:53:26.035Z,101255.72
2018-08-09T23:55:55.248Z,101252.64
2018-08-09T23:58:24.435Z,101252.69
